sensor_id;sensor_type;location;lat;lon;timestamp;temperature;humidity
36442;DHT22;64346;50.820;16.274;2023-05-27T00:00:24;11.10;99.10
36442;DHT22;64346;50.820;16.274;2023-05-27T00:03:12;11.10;99.30
36442;DHT22;64346;50.820;16.274;2023-05-27T00:05:39;11.00;99.50
36442;DHT22;64346;50.820;16.274;2023-05-27T00:08:06;10.90;99.80
36442;DHT22;64346;50.820;16.274;2023-05-27T00:10:38;10.80;99.90
36442;DHT22;64346;50.820;16.274;2023-05-27T00:13:05;10.70;99.90
36442;DHT22;64346;50.820;16.274;2023-05-27T00:15:35;10.70;99.90
36442;DHT22;64346;50.820;16.274;2023-05-27T00:18:02;10.60;99.90
36442;DHT22;64346;50.820;16.274;2023-05-27T00:20:29;10.50;99.90
36442;DHT22;64346;50.820;16.274;2023-05-27T00:22:57;10.50;99.90
36442;DHT22;64346;50.820;16.274;2023-05-27T00:25:24;10.40;99.90
36442;DHT22;64346;50.820;16.274;2023-05-27T00:27:52;10.40;99.90
36442;DHT22;64346;50.820;16.274;2023-05-27T00:30:19;10.30;99.90
36442;DHT22;64346;50.820;16.274;2023-05-27T00:32:48;10.30;99.90
36442;DHT22;64346;50.820;16.274;2023-05-27T00:35:16;10.20;99.90
36442;DHT22;64346;50.820;16.274;2023-05-27T00:37:46;10.20;99.90
36442;DHT22;64346;50.820;16.274;2023-05-27T00:40:14;10.10;99.90
36442;DHT22;64346;50.820;16.274;2023-05-27T00:42:42;10.10;99.90
36442;DHT22;64346;50.820;16.274;2023-05-27T00:45:13;10.00;99.90
36442;DHT22;64346;50.820;16.274;2023-05-27T00:47:41;10.00;99.90
36442;DHT22;64346;50.820;16.274;2023-05-27T00:50:08;10.00;99.90
36442;DHT22;64346;50.820;16.274;2023-05-27T00:52:36;9.90;99.90
36442;DHT22;64346;50.820;16.274;2023-05-27T00:55:03;9.90;99.90
36442;DHT22;64346;50.820;16.274;2023-05-27T00:57:31;9.90;99.90
36442;DHT22;64346;50.820;16.274;2023-05-27T01:00:00;9.90;99.90
36442;DHT22;64346;50.820;16.274;2023-05-27T01:02:30;9.80;99.90
36442;DHT22;64346;50.820;16.274;2023-05-27T01:04:58;9.80;99.90
36442;DHT22;64346;50.820;16.274;2023-05-27T01:07:29;9.70;99.90
36442;DHT22;64346;50.820;16.274;2023-05-27T01:10:07;9.70;99.90
36442;DHT22;64346;50.820;16.274;2023-05-27T01:15:13;9.60;99.90
36442;DHT22;64346;50.820;16.274;2023-05-27T01:17:42;9.60;99.90
36442;DHT22;64346;50.820;16.274;2023-05-27T01:20:14;9.60;99.90
36442;DHT22;64346;50.820;16.274;2023-05-27T01:22:42;9.50;99.90
36442;DHT22;64346;50.820;16.274;2023-05-27T01:25:10;9.50;99.90
36442;DHT22;64346;50.820;16.274;2023-05-27T01:27:38;9.50;99.90
36442;DHT22;64346;50.820;16.274;2023-05-27T01:30:05;9.50;99.90
36442;DHT22;64346;50.820;16.274;2023-05-27T01:35:10;9.50;99.90
36442;DHT22;64346;50.820;16.274;2023-05-27T01:37:41;9.40;99.90
36442;DHT22;64346;50.820;16.274;2023-05-27T01:40:13;9.40;99.90
36442;DHT22;64346;50.820;16.274;2023-05-27T01:42:42;9.30;99.90
36442;DHT22;64346;50.820;16.274;2023-05-27T01:45:11;9.30;99.90
36442;DHT22;64346;50.820;16.274;2023-05-27T01:47:43;9.30;99.90
36442;DHT22;64346;50.820;16.274;2023-05-27T01:50:12;9.30;99.90
36442;DHT22;64346;50.820;16.274;2023-05-27T01:52:40;9.20;99.90
36442;DHT22;64346;50.820;16.274;2023-05-27T01:55:10;9.20;99.90
36442;DHT22;64346;50.820;16.274;2023-05-27T01:57:37;9.20;99.90
36442;DHT22;64346;50.820;16.274;2023-05-27T02:00:07;9.10;99.90
36442;DHT22;64346;50.820;16.274;2023-05-27T02:02:38;9.20;99.90
36442;DHT22;64346;50.820;16.274;2023-05-27T02:05:05;9.10;99.90
36442;DHT22;64346;50.820;16.274;2023-05-27T02:07:33;9.10;99.90
36442;DHT22;64346;50.820;16.274;2023-05-27T02:10:00;9.10;99.90
36442;DHT22;64346;50.820;16.274;2023-05-27T02:12:27;9.10;99.90
36442;DHT22;64346;50.820;16.274;2023-05-27T02:14:59;9.10;99.90
36442;DHT22;64346;50.820;16.274;2023-05-27T02:17:29;9.10;99.90
36442;DHT22;64346;50.820;16.274;2023-05-27T02:19:56;9.10;99.90
36442;DHT22;64346;50.820;16.274;2023-05-27T02:22:26;9.00;99.90
36442;DHT22;64346;50.820;16.274;2023-05-27T02:24:53;9.00;99.90
36442;DHT22;64346;50.820;16.274;2023-05-27T02:27:23;9.00;99.90
36442;DHT22;64346;50.820;16.274;2023-05-27T02:29:50;8.90;99.90
36442;DHT22;64346;50.820;16.274;2023-05-27T02:32:22;8.90;99.90
36442;DHT22;64346;50.820;16.274;2023-05-27T02:34:52;8.80;99.90
36442;DHT22;64346;50.820;16.274;2023-05-27T02:37:21;8.80;99.90
36442;DHT22;64346;50.820;16.274;2023-05-27T02:39:48;8.80;99.90
36442;DHT22;64346;50.820;16.274;2023-05-27T02:42:16;8.80;99.90
36442;DHT22;64346;50.820;16.274;2023-05-27T02:44:43;8.80;99.90
36442;DHT22;64346;50.820;16.274;2023-05-27T02:47:10;8.80;99.90
36442;DHT22;64346;50.820;16.274;2023-05-27T02:49:37;8.80;99.90
36442;DHT22;64346;50.820;16.274;2023-05-27T02:52:05;8.80;99.90
36442;DHT22;64346;50.820;16.274;2023-05-27T02:54:35;8.80;99.90
36442;DHT22;64346;50.820;16.274;2023-05-27T02:57:02;8.80;99.90
36442;DHT22;64346;50.820;16.274;2023-05-27T02:59:29;8.80;99.90
36442;DHT22;64346;50.820;16.274;2023-05-27T03:01:57;8.80;99.90
36442;DHT22;64346;50.820;16.274;2023-05-27T03:04:24;8.70;99.90
36442;DHT22;64346;50.820;16.274;2023-05-27T03:06:51;8.80;99.90
36442;DHT22;64346;50.820;16.274;2023-05-27T03:09:19;8.80;99.90
36442;DHT22;64346;50.820;16.274;2023-05-27T03:11:48;8.80;99.90
36442;DHT22;64346;50.820;16.274;2023-05-27T03:14:20;8.80;99.90
36442;DHT22;64346;50.820;16.274;2023-05-27T03:16:47;8.80;99.90
36442;DHT22;64346;50.820;16.274;2023-05-27T03:19:15;8.90;99.90
36442;DHT22;64346;50.820;16.274;2023-05-27T03:21:42;8.90;99.90
36442;DHT22;64346;50.820;16.274;2023-05-27T03:24:11;8.90;99.90
36442;DHT22;64346;50.820;16.274;2023-05-27T03:26:39;9.00;99.90
36442;DHT22;64346;50.820;16.274;2023-05-27T03:29:06;9.10;99.90
36442;DHT22;64346;50.820;16.274;2023-05-27T03:31:33;9.20;99.90
36442;DHT22;64346;50.820;16.274;2023-05-27T03:34:01;9.30;99.90
36442;DHT22;64346;50.820;16.274;2023-05-27T03:36:28;9.30;99.90
36442;DHT22;64346;50.820;16.274;2023-05-27T03:38:58;9.50;99.90
36442;DHT22;64346;50.820;16.274;2023-05-27T03:41:25;9.60;99.90
36442;DHT22;64346;50.820;16.274;2023-05-27T03:43:53;9.80;99.90
36442;DHT22;64346;50.820;16.274;2023-05-27T03:46:20;9.90;99.90
36442;DHT22;64346;50.820;16.274;2023-05-27T03:48:47;10.10;99.90
36442;DHT22;64346;50.820;16.274;2023-05-27T03:51:15;10.30;99.90
36442;DHT22;64346;50.820;16.274;2023-05-27T03:53:44;10.50;99.90
36442;DHT22;64346;50.820;16.274;2023-05-27T03:56:12;10.80;99.90
36442;DHT22;64346;50.820;16.274;2023-05-27T03:58:39;11.00;99.90
36442;DHT22;64346;50.820;16.274;2023-05-27T04:01:06;11.10;99.90
36442;DHT22;64346;50.820;16.274;2023-05-27T04:03:33;11.30;99.90
36442;DHT22;64346;50.820;16.274;2023-05-27T04:06:01;11.60;99.90
36442;DHT22;64346;50.820;16.274;2023-05-27T04:08:31;11.80;99.90
36442;DHT22;64346;50.820;16.274;2023-05-27T04:11:01;12.00;99.90
36442;DHT22;64346;50.820;16.274;2023-05-27T04:13:30;12.30;99.90
36442;DHT22;64346;50.820;16.274;2023-05-27T04:15:58;12.60;99.90
36442;DHT22;64346;50.820;16.274;2023-05-27T04:18:27;12.90;99.90
36442;DHT22;64346;50.820;16.274;2023-05-27T04:20:54;13.20;99.90
36442;DHT22;64346;50.820;16.274;2023-05-27T04:23:21;13.50;99.90
36442;DHT22;64346;50.820;16.274;2023-05-27T04:25:51;13.90;99.50
36442;DHT22;64346;50.820;16.274;2023-05-27T04:28:20;14.20;99.00
36442;DHT22;64346;50.820;16.274;2023-05-27T04:30:50;14.50;98.40
36442;DHT22;64346;50.820;16.274;2023-05-27T04:33:19;14.80;97.90
36442;DHT22;64346;50.820;16.274;2023-05-27T04:35:47;15.20;97.30
36442;DHT22;64346;50.820;16.274;2023-05-27T04:38:15;15.50;96.70
36442;DHT22;64346;50.820;16.274;2023-05-27T04:40:43;15.80;96.30
36442;DHT22;64346;50.820;16.274;2023-05-27T04:43:12;16.10;95.80
36442;DHT22;64346;50.820;16.274;2023-05-27T04:45:42;16.40;95.30
36442;DHT22;64346;50.820;16.274;2023-05-27T04:48:12;16.70;94.90
36442;DHT22;64346;50.820;16.274;2023-05-27T04:50:42;17.10;94.20
36442;DHT22;64346;50.820;16.274;2023-05-27T04:53:09;17.40;93.60
36442;DHT22;64346;50.820;16.274;2023-05-27T04:55:39;17.80;93.00
36442;DHT22;64346;50.820;16.274;2023-05-27T04:58:06;18.20;92.30
36442;DHT22;64346;50.820;16.274;2023-05-27T05:00:33;18.50;91.80
36442;DHT22;64346;50.820;16.274;2023-05-27T05:03:00;18.90;91.10
36442;DHT22;64346;50.820;16.274;2023-05-27T05:05:29;19.20;90.30
36442;DHT22;64346;50.820;16.274;2023-05-27T05:07:56;19.50;90.00
36442;DHT22;64346;50.820;16.274;2023-05-27T05:10:23;19.80;88.80
36442;DHT22;64346;50.820;16.274;2023-05-27T05:12:53;20.20;87.60
36442;DHT22;64346;50.820;16.274;2023-05-27T05:15:23;20.50;86.20
36442;DHT22;64346;50.820;16.274;2023-05-27T05:17:50;20.80;85.20
36442;DHT22;64346;50.820;16.274;2023-05-27T05:20:17;21.20;83.60
36442;DHT22;64346;50.820;16.274;2023-05-27T05:22:47;21.60;82.50
36442;DHT22;64346;50.820;16.274;2023-05-27T05:25:17;22.00;81.30
36442;DHT22;64346;50.820;16.274;2023-05-27T05:27:44;22.60;79.80
36442;DHT22;64346;50.820;16.274;2023-05-27T05:30:11;23.40;77.50
36442;DHT22;64346;50.820;16.274;2023-05-27T05:32:38;24.90;73.90
36442;DHT22;64346;50.820;16.274;2023-05-27T05:35:06;26.60;70.10
36442;DHT22;64346;50.820;16.274;2023-05-27T05:37:36;28.40;66.10
36442;DHT22;64346;50.820;16.274;2023-05-27T05:40:04;30.00;61.30
36442;DHT22;64346;50.820;16.274;2023-05-27T05:42:31;31.50;58.30
36442;DHT22;64346;50.820;16.274;2023-05-27T05:44:59;32.80;55.40
36442;DHT22;64346;50.820;16.274;2023-05-27T05:47:26;34.10;53.30
36442;DHT22;64346;50.820;16.274;2023-05-27T05:49:53;35.40;51.20
36442;DHT22;64346;50.820;16.274;2023-05-27T05:52:23;36.50;49.60
36442;DHT22;64346;50.820;16.274;2023-05-27T05:54:50;37.30;48.40
36442;DHT22;64346;50.820;16.274;2023-05-27T05:57:18;38.40;47.10
36442;DHT22;64346;50.820;16.274;2023-05-27T05:59:45;39.20;45.70
36442;DHT22;64346;50.820;16.274;2023-05-27T06:02:14;39.80;44.60
36442;DHT22;64346;50.820;16.274;2023-05-27T06:04:45;40.70;43.80
36442;DHT22;64346;50.820;16.274;2023-05-27T06:07:12;41.80;42.80
36442;DHT22;64346;50.820;16.274;2023-05-27T06:09:40;42.50;41.90
36442;DHT22;64346;50.820;16.274;2023-05-27T06:12:07;43.20;40.90
36442;DHT22;64346;50.820;16.274;2023-05-27T06:14:34;43.50;40.20
36442;DHT22;64346;50.820;16.274;2023-05-27T06:17:01;44.00;39.90
36442;DHT22;64346;50.820;16.274;2023-05-27T06:19:29;44.60;39.40
36442;DHT22;64346;50.820;16.274;2023-05-27T06:21:56;45.10;39.10
36442;DHT22;64346;50.820;16.274;2023-05-27T06:24:24;45.60;38.30
36442;DHT22;64346;50.820;16.274;2023-05-27T06:26:51;46.20;37.80
36442;DHT22;64346;50.820;16.274;2023-05-27T06:29:20;46.40;37.60
36442;DHT22;64346;50.820;16.274;2023-05-27T06:31:47;46.90;37.30
36442;DHT22;64346;50.820;16.274;2023-05-27T06:34:15;47.00;36.90
36442;DHT22;64346;50.820;16.274;2023-05-27T06:36:43;47.40;36.70
36442;DHT22;64346;50.820;16.274;2023-05-27T06:39:13;48.00;36.50
36442;DHT22;64346;50.820;16.274;2023-05-27T06:41:40;48.60;36.00
36442;DHT22;64346;50.820;16.274;2023-05-27T06:44:07;48.60;35.40
36442;DHT22;64346;50.820;16.274;2023-05-27T06:46:37;48.90;35.50
36442;DHT22;64346;50.820;16.274;2023-05-27T06:49:04;48.90;35.00
36442;DHT22;64346;50.820;16.274;2023-05-27T06:51:32;48.90;34.90
36442;DHT22;64346;50.820;16.274;2023-05-27T06:54:02;49.10;35.00
36442;DHT22;64346;50.820;16.274;2023-05-27T06:56:29;49.10;35.40
36442;DHT22;64346;50.820;16.274;2023-05-27T06:58:59;48.80;34.40
36442;DHT22;64346;50.820;16.274;2023-05-27T07:01:26;48.10;34.80
36442;DHT22;64346;50.820;16.274;2023-05-27T07:03:53;48.30;34.70
36442;DHT22;64346;50.820;16.274;2023-05-27T07:06:20;48.60;34.60
36442;DHT22;64346;50.820;16.274;2023-05-27T07:08:48;48.90;34.60
36442;DHT22;64346;50.820;16.274;2023-05-27T07:11:17;49.40;34.30
36442;DHT22;64346;50.820;16.274;2023-05-27T07:13:44;50.00;34.00
36442;DHT22;64346;50.820;16.274;2023-05-27T07:16:12;50.60;33.90
36442;DHT22;64346;50.820;16.274;2023-05-27T07:18:41;50.90;33.80
36442;DHT22;64346;50.820;16.274;2023-05-27T07:21:11;50.80;34.00
36442;DHT22;64346;50.820;16.274;2023-05-27T07:23:38;50.70;33.60
36442;DHT22;64346;50.820;16.274;2023-05-27T07:26:06;51.00;33.50
36442;DHT22;64346;50.820;16.274;2023-05-27T07:28:33;50.90;33.10
36442;DHT22;64346;50.820;16.274;2023-05-27T07:31:00;51.10;33.00
36442;DHT22;64346;50.820;16.274;2023-05-27T07:33:28;51.10;33.80
36442;DHT22;64346;50.820;16.274;2023-05-27T07:35:55;51.30;32.40
36442;DHT22;64346;50.820;16.274;2023-05-27T07:38:22;51.40;32.70
36442;DHT22;64346;50.820;16.274;2023-05-27T07:40:49;51.60;32.60
36442;DHT22;64346;50.820;16.274;2023-05-27T07:43:20;51.20;32.60
36442;DHT22;64346;50.820;16.274;2023-05-27T07:45:47;50.70;32.20
36442;DHT22;64346;50.820;16.274;2023-05-27T07:48:14;50.80;32.20
36442;DHT22;64346;50.820;16.274;2023-05-27T07:50:44;51.20;32.40
36442;DHT22;64346;50.820;16.274;2023-05-27T07:53:11;51.50;32.40
36442;DHT22;64346;50.820;16.274;2023-05-27T07:55:38;51.90;32.60
36442;DHT22;64346;50.820;16.274;2023-05-27T07:58:06;51.90;32.00
36442;DHT22;64346;50.820;16.274;2023-05-27T08:00:33;51.60;31.80
36442;DHT22;64346;50.820;16.274;2023-05-27T08:03:00;51.60;31.90
36442;DHT22;64346;50.820;16.274;2023-05-27T08:05:30;51.30;32.20
36442;DHT22;64346;50.820;16.274;2023-05-27T08:07:58;51.20;32.00
36442;DHT22;64346;50.820;16.274;2023-05-27T08:10:26;51.60;32.20
36442;DHT22;64346;50.820;16.274;2023-05-27T08:12:53;51.70;32.00
36442;DHT22;64346;50.820;16.274;2023-05-27T08:15:23;51.40;32.20
36442;DHT22;64346;50.820;16.274;2023-05-27T08:17:50;51.20;31.60
36442;DHT22;64346;50.820;16.274;2023-05-27T08:20:17;50.80;32.20
36442;DHT22;64346;50.820;16.274;2023-05-27T08:22:45;49.60;32.60
36442;DHT22;64346;50.820;16.274;2023-05-27T08:25:12;49.10;33.20
36442;DHT22;64346;50.820;16.274;2023-05-27T08:27:50;48.80;33.00
36442;DHT22;64346;50.820;16.274;2023-05-27T08:30:19;46.90;33.40
36442;DHT22;64346;50.820;16.274;2023-05-27T08:32:47;45.90;34.30
36442;DHT22;64346;50.820;16.274;2023-05-27T08:35:18;46.40;34.00
36442;DHT22;64346;50.820;16.274;2023-05-27T08:37:48;46.70;33.80
36442;DHT22;64346;50.820;16.274;2023-05-27T08:40:17;46.30;33.50
36442;DHT22;64346;50.820;16.274;2023-05-27T08:42:49;45.80;34.50
36442;DHT22;64346;50.820;16.274;2023-05-27T08:45:16;44.70;34.20
36442;DHT22;64346;50.820;16.274;2023-05-27T08:47:43;41.60;35.20
36442;DHT22;64346;50.820;16.274;2023-05-27T08:50:11;38.90;37.30
36442;DHT22;64346;50.820;16.274;2023-05-27T08:52:45;36.90;37.90
36442;DHT22;64346;50.820;16.274;2023-05-27T08:55:15;35.30;39.30
36442;DHT22;64346;50.820;16.274;2023-05-27T08:57:49;34.80;40.10
36442;DHT22;64346;50.820;16.274;2023-05-27T09:00:17;34.70;40.70
36442;DHT22;64346;50.820;16.274;2023-05-27T09:02:46;34.60;41.30
36442;DHT22;64346;50.820;16.274;2023-05-27T09:05:15;34.20;41.40
36442;DHT22;64346;50.820;16.274;2023-05-27T09:07:43;33.30;41.60
36442;DHT22;64346;50.820;16.274;2023-05-27T09:10:16;32.60;42.10
36442;DHT22;64346;50.820;16.274;2023-05-27T09:12:47;31.60;42.80
36442;DHT22;64346;50.820;16.274;2023-05-27T09:15:16;31.00;43.50
36442;DHT22;64346;50.820;16.274;2023-05-27T09:17:45;30.50;43.40
36442;DHT22;64346;50.820;16.274;2023-05-27T09:20:15;30.20;44.90
36442;DHT22;64346;50.820;16.274;2023-05-27T09:22:43;29.90;45.00
36442;DHT22;64346;50.820;16.274;2023-05-27T09:25:10;29.30;45.80
36442;DHT22;64346;50.820;16.274;2023-05-27T09:27:44;28.80;46.80
36442;DHT22;64346;50.820;16.274;2023-05-27T09:30:12;28.30;47.50
36442;DHT22;64346;50.820;16.274;2023-05-27T09:32:40;28.00;47.90
36442;DHT22;64346;50.820;16.274;2023-05-27T09:35:11;27.90;48.00
36442;DHT22;64346;50.820;16.274;2023-05-27T09:37:41;27.70;48.80
36442;DHT22;64346;50.820;16.274;2023-05-27T09:40:10;27.50;48.40
36442;DHT22;64346;50.820;16.274;2023-05-27T09:42:50;27.10;47.80
36442;DHT22;64346;50.820;16.274;2023-05-27T09:45:20;26.80;49.20
36442;DHT22;64346;50.820;16.274;2023-05-27T09:50:20;26.60;49.70
36442;DHT22;64346;50.820;16.274;2023-05-27T09:52:48;26.80;49.10
36442;DHT22;64346;50.820;16.274;2023-05-27T09:55:38;26.70;48.70
36442;DHT22;64346;50.820;16.274;2023-05-27T09:58:09;26.50;51.10
36442;DHT22;64346;50.820;16.274;2023-05-27T10:00:37;26.00;50.60
36442;DHT22;64346;50.820;16.274;2023-05-27T10:03:08;25.70;50.40
36442;DHT22;64346;50.820;16.274;2023-05-27T10:05:39;25.50;50.30
36442;DHT22;64346;50.820;16.274;2023-05-27T10:08:06;25.30;50.00
36442;DHT22;64346;50.820;16.274;2023-05-27T10:10:51;25.10;51.00
36442;DHT22;64346;50.820;16.274;2023-05-27T10:13:23;24.90;52.90
36442;DHT22;64346;50.820;16.274;2023-05-27T10:15:51;24.70;52.00
36442;DHT22;64346;50.820;16.274;2023-05-27T10:18:27;24.60;51.40
36442;DHT22;64346;50.820;16.274;2023-05-27T10:20:57;24.40;51.90
36442;DHT22;64346;50.820;16.274;2023-05-27T10:23:26;24.20;52.20
36442;DHT22;64346;50.820;16.274;2023-05-27T10:26:06;24.10;52.20
36442;DHT22;64346;50.820;16.274;2023-05-27T10:28:36;23.90;52.10
36442;DHT22;64346;50.820;16.274;2023-05-27T10:31:11;23.80;52.10
36442;DHT22;64346;50.820;16.274;2023-05-27T10:33:45;23.70;52.70
36442;DHT22;64346;50.820;16.274;2023-05-27T10:36:25;23.50;53.20
36442;DHT22;64346;50.820;16.274;2023-05-27T10:38:57;23.30;52.60
36442;DHT22;64346;50.820;16.274;2023-05-27T10:41:25;23.00;54.80
36442;DHT22;64346;50.820;16.274;2023-05-27T10:43:57;22.90;53.80
36442;DHT22;64346;50.820;16.274;2023-05-27T10:46:26;22.80;53.90
36442;DHT22;64346;50.820;16.274;2023-05-27T10:49:15;22.60;53.80
36442;DHT22;64346;50.820;16.274;2023-05-27T10:51:47;22.50;54.30
36442;DHT22;64346;50.820;16.274;2023-05-27T10:54:20;22.20;54.30
36442;DHT22;64346;50.820;16.274;2023-05-27T10:56:56;22.10;56.90
36442;DHT22;64346;50.820;16.274;2023-05-27T10:59:27;22.00;53.80
36442;DHT22;64346;50.820;16.274;2023-05-27T11:22:57;20.90;55.70
36442;DHT22;64346;50.820;16.274;2023-05-27T11:25:24;20.90;55.70
36442;DHT22;64346;50.820;16.274;2023-05-27T11:27:54;20.90;56.60
36442;DHT22;64346;50.820;16.274;2023-05-27T11:30:27;20.70;54.50
36442;DHT22;64346;50.820;16.274;2023-05-27T11:33:01;20.60;55.70
36442;DHT22;64346;50.820;16.274;2023-05-27T11:35:30;20.30;55.90
36442;DHT22;64346;50.820;16.274;2023-05-27T11:37:57;20.20;55.90
36442;DHT22;64346;50.820;16.274;2023-05-27T11:40:25;20.10;57.20
36442;DHT22;64346;50.820;16.274;2023-05-27T11:42:52;20.10;58.50
36442;DHT22;64346;50.820;16.274;2023-05-27T11:45:20;20.00;59.10
36442;DHT22;64346;50.820;16.274;2023-05-27T11:47:48;20.00;58.80
36442;DHT22;64346;50.820;16.274;2023-05-27T11:50:21;20.00;59.90
36442;DHT22;64346;50.820;16.274;2023-05-27T11:52:56;20.10;60.50
36442;DHT22;64346;50.820;16.274;2023-05-27T11:55:24;20.00;59.10
36442;DHT22;64346;50.820;16.274;2023-05-27T11:57:51;20.00;59.90
36442;DHT22;64346;50.820;16.274;2023-05-27T12:00:19;20.00;59.70
36442;DHT22;64346;50.820;16.274;2023-05-27T12:02:46;19.90;59.70
36442;DHT22;64346;50.820;16.274;2023-05-27T12:05:14;19.90;61.00
36442;DHT22;64346;50.820;16.274;2023-05-27T12:07:59;19.90;61.10
36442;DHT22;64346;50.820;16.274;2023-05-27T12:10:29;19.80;60.70
36442;DHT22;64346;50.820;16.274;2023-05-27T12:13:06;19.70;61.00
36442;DHT22;64346;50.820;16.274;2023-05-27T12:15:34;19.60;59.80
36442;DHT22;64346;50.820;16.274;2023-05-27T12:18:01;19.50;59.70
36442;DHT22;64346;50.820;16.274;2023-05-27T12:20:29;19.30;59.60
36442;DHT22;64346;50.820;16.274;2023-05-27T12:22:56;19.00;60.50
36442;DHT22;64346;50.820;16.274;2023-05-27T12:25:24;18.90;62.20
36442;DHT22;64346;50.820;16.274;2023-05-27T12:27:51;19.00;62.90
36442;DHT22;64346;50.820;16.274;2023-05-27T12:30:21;19.10;64.00
36442;DHT22;64346;50.820;16.274;2023-05-27T12:32:51;19.20;63.40
36442;DHT22;64346;50.820;16.274;2023-05-27T12:35:21;19.30;63.60
36442;DHT22;64346;50.820;16.274;2023-05-27T12:37:48;19.30;63.70
36442;DHT22;64346;50.820;16.274;2023-05-27T12:40:18;19.40;64.20
36442;DHT22;64346;50.820;16.274;2023-05-27T12:42:45;19.30;64.20
36442;DHT22;64346;50.820;16.274;2023-05-27T12:45:15;19.30;63.90
36442;DHT22;64346;50.820;16.274;2023-05-27T12:47:45;19.30;62.80
36442;DHT22;64346;50.820;16.274;2023-05-27T12:50:15;19.30;63.30
36442;DHT22;64346;50.820;16.274;2023-05-27T12:52:47;19.30;62.90
36442;DHT22;64346;50.820;16.274;2023-05-27T12:55:17;19.30;63.20
36442;DHT22;64346;50.820;16.274;2023-05-27T12:57:49;19.30;63.90
36442;DHT22;64346;50.820;16.274;2023-05-27T13:00:20;19.40;63.40
36442;DHT22;64346;50.820;16.274;2023-05-27T13:02:47;19.50;63.40
36442;DHT22;64346;50.820;16.274;2023-05-27T13:05:17;19.50;63.10
36442;DHT22;64346;50.820;16.274;2023-05-27T13:07:55;19.50;62.70
36442;DHT22;64346;50.820;16.274;2023-05-27T13:10:22;19.60;61.90
36442;DHT22;64346;50.820;16.274;2023-05-27T13:12:52;19.60;63.30
36442;DHT22;64346;50.820;16.274;2023-05-27T13:15:22;19.50;60.60
36442;DHT22;64346;50.820;16.274;2023-05-27T13:17:52;19.30;59.10
36442;DHT22;64346;50.820;16.274;2023-05-27T13:20:21;19.00;58.70
36442;DHT22;64346;50.820;16.274;2023-05-27T13:22:49;18.80;60.40
36442;DHT22;64346;50.820;16.274;2023-05-27T13:25:17;18.70;61.50
36442;DHT22;64346;50.820;16.274;2023-05-27T13:27:44;18.70;63.00
36442;DHT22;64346;50.820;16.274;2023-05-27T13:30:15;18.70;63.60
36442;DHT22;64346;50.820;16.274;2023-05-27T13:32:43;18.70;64.00
36442;DHT22;64346;50.820;16.274;2023-05-27T13:35:14;18.60;63.20
36442;DHT22;64346;50.820;16.274;2023-05-27T13:37:41;18.60;63.60
36442;DHT22;64346;50.820;16.274;2023-05-27T13:40:10;18.50;64.00
36442;DHT22;64346;50.820;16.274;2023-05-27T13:42:37;18.40;63.90
36442;DHT22;64346;50.820;16.274;2023-05-27T13:45:08;18.40;65.40
36442;DHT22;64346;50.820;16.274;2023-05-27T13:47:35;18.40;65.40
36442;DHT22;64346;50.820;16.274;2023-05-27T13:50:03;18.30;65.40
36442;DHT22;64346;50.820;16.274;2023-05-27T13:52:30;18.20;65.70
36442;DHT22;64346;50.820;16.274;2023-05-27T13:55:02;18.30;65.70
36442;DHT22;64346;50.820;16.274;2023-05-27T13:57:30;18.40;65.60
36442;DHT22;64346;50.820;16.274;2023-05-27T13:59:57;18.40;65.20
36442;DHT22;64346;50.820;16.274;2023-05-27T14:02:24;18.50;64.60
36442;DHT22;64346;50.820;16.274;2023-05-27T14:04:52;18.40;65.40
36442;DHT22;64346;50.820;16.274;2023-05-27T14:07:28;18.40;65.50
36442;DHT22;64346;50.820;16.274;2023-05-27T14:09:56;18.40;65.50
36442;DHT22;64346;50.820;16.274;2023-05-27T14:12:23;18.50;65.30
36442;DHT22;64346;50.820;16.274;2023-05-27T14:14:51;18.50;65.40
36442;DHT22;64346;50.820;16.274;2023-05-27T14:17:18;18.60;65.60
36442;DHT22;64346;50.820;16.274;2023-05-27T14:19:50;18.60;65.20
36442;DHT22;64346;50.820;16.274;2023-05-27T14:22:17;18.60;63.90
36442;DHT22;64346;50.820;16.274;2023-05-27T14:24:45;18.50;62.10
36442;DHT22;64346;50.820;16.274;2023-05-27T14:27:12;18.40;62.50
36442;DHT22;64346;50.820;16.274;2023-05-27T14:29:39;18.30;62.90
36442;DHT22;64346;50.820;16.274;2023-05-27T14:32:09;18.20;62.90
36442;DHT22;64346;50.820;16.274;2023-05-27T14:34:39;18.00;63.60
36442;DHT22;64346;50.820;16.274;2023-05-27T14:37:06;18.00;63.90
36442;DHT22;64346;50.820;16.274;2023-05-27T14:39:35;18.00;64.50
36442;DHT22;64346;50.820;16.274;2023-05-27T14:42:03;18.00;65.60
36442;DHT22;64346;50.820;16.274;2023-05-27T14:44:34;18.00;66.50
36442;DHT22;64346;50.820;16.274;2023-05-27T14:47:01;18.00;66.00
36442;DHT22;64346;50.820;16.274;2023-05-27T14:49:29;18.10;65.70
36442;DHT22;64346;50.820;16.274;2023-05-27T14:52:01;18.10;65.90
36442;DHT22;64346;50.820;16.274;2023-05-27T14:54:28;18.20;66.00
36442;DHT22;64346;50.820;16.274;2023-05-27T14:56:55;18.20;65.70
36442;DHT22;64346;50.820;16.274;2023-05-27T14:59:23;18.20;65.00
36442;DHT22;64346;50.820;16.274;2023-05-27T15:01:52;18.20;64.80
36442;DHT22;64346;50.820;16.274;2023-05-27T15:04:22;18.30;64.90
36442;DHT22;64346;50.820;16.274;2023-05-27T15:06:52;18.20;64.30
36442;DHT22;64346;50.820;16.274;2023-05-27T15:09:19;18.10;63.50
36442;DHT22;64346;50.820;16.274;2023-05-27T15:11:49;18.00;63.70
36442;DHT22;64346;50.820;16.274;2023-05-27T15:14:16;17.90;64.60
36442;DHT22;64346;50.820;16.274;2023-05-27T15:16:44;17.80;64.10
36442;DHT22;64346;50.820;16.274;2023-05-27T15:19:14;17.70;65.40
36442;DHT22;64346;50.820;16.274;2023-05-27T15:21:43;17.70;65.30
36442;DHT22;64346;50.820;16.274;2023-05-27T15:24:10;17.60;66.40
36442;DHT22;64346;50.820;16.274;2023-05-27T15:26:37;17.70;66.80
36442;DHT22;64346;50.820;16.274;2023-05-27T15:29:05;17.60;65.70
36442;DHT22;64346;50.820;16.274;2023-05-27T15:31:32;17.70;72.70
36442;DHT22;64346;50.820;16.274;2023-05-27T15:34:00;17.80;67.80
36442;DHT22;64346;50.820;16.274;2023-05-27T15:36:29;17.80;67.00
36442;DHT22;64346;50.820;16.274;2023-05-27T15:39:00;17.80;67.00
36442;DHT22;64346;50.820;16.274;2023-05-27T15:41:27;17.70;66.20
36442;DHT22;64346;50.820;16.274;2023-05-27T15:43:54;17.60;66.80
36442;DHT22;64346;50.820;16.274;2023-05-27T15:46:21;17.60;65.40
36442;DHT22;64346;50.820;16.274;2023-05-27T15:48:49;17.60;65.50
36442;DHT22;64346;50.820;16.274;2023-05-27T15:51:16;17.50;66.20
36442;DHT22;64346;50.820;16.274;2023-05-27T15:53:44;17.50;66.70
36442;DHT22;64346;50.820;16.274;2023-05-27T15:56:14;17.40;64.60